createdAt,value
2023-01-19T00:00:33.447Z,22.62
2023-01-19T00:03:00.560Z,22.15
2023-01-19T00:05:27.278Z,22.57
2023-01-19T00:07:54.012Z,22.57
2023-01-19T00:10:20.887Z,20.97
2023-01-19T00:12:47.611Z,21.08
2023-01-19T00:15:14.312Z,21.24
2023-01-19T00:17:41.156Z,21.60
2023-01-19T00:20:09.590Z,22.80
2023-01-19T00:22:36.301Z,21.25
2023-01-19T00:25:03.618Z,22.99
2023-01-19T00:27:34.877Z,22.79
2023-01-19T00:30:02.499Z,24.64
2023-01-19T00:32:29.292Z,24.70
2023-01-19T00:34:56.074Z,23.34
2023-01-19T00:37:23.223Z,23.35
2023-01-19T00:39:50.284Z,22.95
2023-01-19T00:42:35.999Z,23.19
2023-01-19T00:47:39.353Z,23.27
2023-01-19T00:50:08.384Z,25.72
2023-01-19T00:52:35.267Z,23.64
2023-01-19T00:55:02.326Z,22.93
2023-01-19T00:57:29.662Z,23.46
2023-01-19T00:59:57.081Z,22.26
2023-01-19T01:02:24.367Z,22.11
2023-01-19T01:04:54.866Z,21.00
2023-01-19T01:07:22.654Z,21.76
2023-01-19T01:09:49.399Z,25.09
2023-01-19T01:12:16.610Z,22.81
2023-01-19T01:14:43.384Z,22.17
2023-01-19T01:17:11.955Z,24.04
2023-01-19T01:19:39.050Z,25.08
2023-01-19T01:22:06.245Z,28.01
2023-01-19T01:24:33.108Z,26.08
2023-01-19T01:26:59.853Z,23.58
2023-01-19T01:29:26.749Z,25.61
2023-01-19T01:31:53.772Z,24.41
2023-01-19T01:34:20.606Z,23.18
2023-01-19T01:36:47.623Z,22.29
2023-01-19T01:39:14.343Z,21.86
2023-01-19T01:41:41.277Z,21.21
2023-01-19T01:44:49.856Z,21.90
2023-01-19T01:47:41.373Z,22.65
2023-01-19T01:50:15.068Z,23.42
2023-01-19T01:53:07.399Z,22.36
2023-01-19T01:55:46.249Z,23.42
2023-01-19T01:58:14.973Z,21.20
2023-01-19T02:01:00.310Z,23.04
2023-01-19T02:03:28.144Z,21.35
2023-01-19T02:06:00.119Z,21.19
2023-01-19T02:09:02.007Z,20.73
2023-01-19T02:11:49.664Z,21.84
2023-01-19T02:14:16.817Z,24.44
2023-01-19T02:16:43.747Z,23.53
2023-01-19T02:19:16.951Z,22.80
2023-01-19T02:22:05.862Z,22.44
2023-01-19T02:24:33.319Z,22.35
2023-01-19T02:27:00.374Z,21.45
2023-01-19T02:29:28.704Z,22.95
2023-01-19T02:31:56.812Z,20.45
2023-01-19T02:34:23.551Z,21.46
2023-01-19T02:36:54.988Z,21.46
2023-01-19T02:39:38.920Z,24.81
2023-01-19T02:42:13.533Z,23.30
2023-01-19T02:44:43.480Z,21.51
2023-01-19T02:47:10.238Z,22.79
2023-01-19T02:49:37.617Z,21.86
2023-01-19T02:52:04.961Z,21.22
2023-01-19T02:54:43.644Z,23.46
2023-01-19T02:57:26.828Z,24.99
2023-01-19T03:00:09.863Z,21.49
2023-01-19T03:02:55.895Z,22.78
2023-01-19T03:05:50.267Z,23.26
2023-01-19T03:08:30.006Z,23.99
2023-01-19T03:11:04.589Z,23.76
2023-01-19T03:13:44.319Z,24.15
2023-01-19T03:16:25.736Z,25.29
2023-01-19T03:18:56.685Z,24.42
2023-01-19T03:21:27.593Z,22.80
2023-01-19T03:24:00.201Z,24.92
2023-01-19T03:26:32.609Z,23.80
2023-01-19T03:29:02.559Z,23.82
2023-01-19T03:31:33.432Z,22.02
2023-01-19T03:34:06.789Z,22.74
2023-01-19T03:36:42.515Z,21.44
2023-01-19T03:39:11.338Z,22.08
2023-01-19T03:41:41.360Z,22.06
2023-01-19T03:44:09.187Z,22.42
2023-01-19T03:46:36.333Z,22.96
2023-01-19T03:49:03.695Z,21.81
2023-01-19T03:51:30.827Z,22.81
2023-01-19T03:53:57.684Z,23.00
2023-01-19T03:56:25.872Z,23.44
2023-01-19T03:58:52.810Z,21.66
2023-01-19T04:01:24.166Z,23.36
2023-01-19T04:03:52.458Z,24.91
2023-01-19T04:06:21.517Z,20.45
2023-01-19T04:08:50.453Z,23.02
2023-01-19T04:11:18.050Z,21.58
2023-01-19T04:13:45.031Z,21.69
2023-01-19T04:16:12.797Z,21.11
2023-01-19T04:18:40.734Z,22.26
2023-01-19T04:21:08.016Z,20.07
2023-01-19T04:23:35.643Z,20.12
2023-01-19T04:26:05.031Z,20.04
2023-01-19T04:28:33.445Z,24.37
2023-01-19T04:31:00.323Z,22.47
2023-01-19T04:33:28.030Z,21.81
2023-01-19T04:35:56.124Z,20.93
2023-01-19T04:38:23.932Z,21.54
2023-01-19T04:40:52.839Z,21.65
2023-01-19T04:43:21.108Z,24.06
2023-01-19T04:45:48.590Z,22.44
2023-01-19T04:48:16.484Z,25.44
2023-01-19T04:50:43.201Z,21.97
2023-01-19T04:53:10.831Z,23.67
2023-01-19T04:55:38.887Z,21.00
2023-01-19T04:58:05.931Z,19.70
2023-01-19T05:00:32.640Z,23.00
2023-01-19T05:03:00.139Z,21.29
2023-01-19T05:05:27.480Z,19.60
2023-01-19T05:07:54.980Z,19.47
2023-01-19T05:10:22.120Z,21.54
2023-01-19T05:12:48.870Z,19.40
2023-01-19T05:15:15.646Z,20.11
2023-01-19T05:17:42.372Z,21.33
2023-01-19T05:20:15.711Z,22.44
2023-01-19T05:22:43.474Z,23.97
2023-01-19T05:25:10.368Z,22.28
2023-01-19T05:27:38.710Z,21.07
2023-01-19T05:30:06.789Z,20.47
2023-01-19T05:32:33.692Z,21.56
2023-01-19T05:35:00.596Z,21.40
2023-01-19T05:37:27.435Z,22.68
2023-01-19T05:39:54.910Z,20.60
2023-01-19T05:42:21.850Z,20.06
2023-01-19T05:44:48.779Z,21.78
2023-01-19T05:47:15.696Z,23.83
2023-01-19T05:49:42.427Z,21.25
2023-01-19T05:52:09.173Z,20.64
2023-01-19T05:54:35.870Z,19.94
2023-01-19T05:57:03.176Z,19.89
2023-01-19T05:59:30.108Z,19.88
2023-01-19T06:01:57.311Z,19.94
2023-01-19T06:04:24.480Z,20.61
2023-01-19T06:06:51.584Z,20.17
2023-01-19T06:09:18.878Z,21.22
2023-01-19T06:11:46.766Z,20.24
2023-01-19T06:14:13.883Z,21.39
2023-01-19T06:16:41.289Z,20.07
2023-01-19T06:19:08.290Z,19.78
2023-01-19T06:21:35.446Z,19.79
2023-01-19T06:24:02.214Z,21.28
2023-01-19T06:26:29.341Z,19.61
2023-01-19T06:28:56.106Z,20.09
2023-01-19T06:31:23.074Z,19.67
2023-01-19T06:33:51.724Z,19.41
2023-01-19T06:36:18.478Z,19.67
2023-01-19T06:38:45.495Z,23.00
2023-01-19T06:41:12.216Z,22.82
2023-01-19T06:43:39.004Z,21.04
2023-01-19T06:46:06.092Z,20.95
2023-01-19T06:48:32.905Z,22.00
2023-01-19T06:51:00.011Z,22.10
2023-01-19T06:53:30.600Z,25.53
2023-01-19T06:56:02.078Z,22.46
2023-01-19T06:58:30.787Z,22.24
2023-01-19T07:01:08.073Z,24.55
2023-01-19T07:03:37.312Z,21.91
2023-01-19T07:06:06.738Z,21.21
2023-01-19T07:08:35.515Z,22.78
2023-01-19T07:11:26.404Z,20.35
2023-01-19T07:13:55.597Z,21.62
2023-01-19T07:16:23.416Z,19.22
2023-01-19T07:18:51.011Z,22.32
2023-01-19T07:21:18.201Z,23.45
2023-01-19T07:23:47.747Z,21.12
2023-01-19T07:26:15.621Z,21.08
2023-01-19T07:28:42.370Z,20.85
2023-01-19T07:31:09.723Z,21.09
2023-01-19T07:33:36.695Z,23.53
2023-01-19T07:36:03.510Z,21.54
2023-01-19T07:38:30.244Z,20.53
2023-01-19T07:41:02.225Z,19.83
2023-01-19T07:43:29.132Z,23.34
2023-01-19T07:45:57.931Z,19.67
2023-01-19T07:48:25.122Z,19.04
2023-01-19T07:50:51.863Z,20.70
2023-01-19T07:53:18.661Z,20.34
2023-01-19T07:55:46.048Z,19.90
2023-01-19T07:58:13.046Z,20.21
2023-01-19T08:00:39.871Z,20.00
2023-01-19T08:03:06.820Z,18.93
2023-01-19T08:05:33.895Z,19.08
2023-01-19T08:08:01.277Z,19.41
2023-01-19T08:10:29.151Z,19.54
2023-01-19T08:12:57.080Z,19.81
2023-01-19T08:15:24.928Z,20.21
2023-01-19T08:18:09.894Z,19.60
2023-01-19T08:20:37.635Z,19.61
2023-01-19T08:23:05.601Z,19.42
2023-01-19T08:25:33.616Z,19.28
2023-01-19T08:28:01.602Z,19.20
2023-01-19T08:30:28.706Z,18.84
2023-01-19T08:33:03.796Z,20.43
2023-01-19T08:35:32.414Z,19.57
2023-01-19T08:38:01.568Z,19.63
2023-01-19T08:40:29.913Z,20.76
2023-01-19T08:43:08.359Z,19.21
2023-01-19T08:45:37.202Z,20.31
2023-01-19T08:48:06.939Z,21.68
2023-01-19T08:50:34.614Z,21.81
2023-01-19T08:53:03.685Z,21.43
2023-01-19T08:55:33.698Z,20.67
2023-01-19T08:58:01.786Z,20.40
2023-01-19T09:00:31.652Z,19.74
2023-01-19T09:02:59.704Z,22.05
2023-01-19T09:05:27.393Z,20.83
2023-01-19T09:07:54.581Z,21.16
2023-01-19T09:10:21.316Z,19.45
2023-01-19T09:12:48.211Z,20.77
2023-01-19T09:15:15.040Z,22.13
2023-01-19T09:17:42.555Z,23.26
2023-01-19T09:20:10.337Z,21.07
2023-01-19T09:22:39.804Z,23.01
2023-01-19T09:25:07.595Z,21.10
2023-01-19T09:27:34.883Z,22.42
2023-01-19T09:30:03.247Z,22.63
2023-01-19T09:32:29.956Z,22.02
2023-01-19T09:34:56.945Z,23.75
2023-01-19T09:37:23.819Z,20.08
2023-01-19T09:39:50.598Z,20.37
2023-01-19T09:42:18.536Z,20.62
2023-01-19T09:44:48.198Z,20.54
2023-01-19T09:47:20.252Z,21.81
2023-01-19T09:50:11.503Z,20.49
2023-01-19T09:52:44.027Z,21.63
2023-01-19T09:55:22.831Z,22.79
2023-01-19T09:57:50.075Z,20.68
2023-01-19T10:00:18.553Z,21.24
2023-01-19T10:02:53.287Z,21.03
2023-01-19T10:05:29.568Z,23.25
2023-01-19T10:08:08.657Z,20.75
2023-01-19T10:10:37.727Z,23.12
2023-01-19T10:13:10.781Z,22.58
2023-01-19T10:15:48.186Z,22.24
2023-01-19T10:18:34.642Z,20.67
2023-01-19T10:21:05.694Z,23.23
2023-01-19T10:23:44.556Z,21.17
2023-01-19T10:26:14.479Z,20.03
2023-01-19T10:28:41.352Z,22.98
2023-01-19T10:31:09.787Z,22.78
2023-01-19T10:33:38.527Z,23.63
2023-01-19T10:36:39.924Z,21.54
2023-01-19T10:39:08.453Z,22.43
2023-01-19T10:42:00.496Z,21.34
2023-01-19T10:44:29.543Z,22.11
2023-01-19T10:46:59.814Z,21.81
2023-01-19T10:49:46.783Z,23.19
2023-01-19T10:52:35.736Z,23.51
2023-01-19T10:55:05.621Z,22.84
2023-01-19T10:57:37.421Z,23.37
2023-01-19T11:00:34.828Z,20.99
2023-01-19T11:03:02.397Z,18.38
2023-01-19T11:05:32.054Z,23.42
2023-01-19T11:07:59.628Z,20.76
2023-01-19T11:10:29.279Z,21.43
2023-01-19T11:13:12.710Z,20.87
2023-01-19T11:15:42.456Z,21.32
2023-01-19T11:18:20.731Z,22.52
2023-01-19T11:20:54.077Z,20.68
2023-01-19T11:23:34.716Z,22.31
2023-01-19T11:26:05.219Z,21.96
2023-01-19T11:28:33.738Z,20.87
2023-01-19T11:31:03.779Z,19.21
2023-01-19T11:33:37.723Z,19.74
2023-01-19T11:36:21.253Z,21.11
2023-01-19T11:38:56.864Z,20.46
2023-01-19T11:41:32.357Z,21.24
2023-01-19T11:44:16.335Z,21.01
2023-01-19T11:46:50.166Z,21.89
2023-01-19T11:49:27.448Z,19.67
2023-01-19T11:52:35.363Z,18.34
2023-01-19T11:55:05.915Z,17.80
2023-01-19T11:57:32.856Z,20.49
2023-01-19T12:00:05.228Z,21.98
2023-01-19T12:02:44.225Z,20.22
2023-01-19T12:05:15.968Z,19.48
2023-01-19T12:07:45.472Z,21.14
2023-01-19T12:10:31.486Z,22.66
2023-01-19T12:13:00.478Z,19.45
2023-01-19T12:15:39.339Z,20.39
2023-01-19T12:18:12.794Z,20.05
2023-01-19T12:20:54.303Z,20.52
2023-01-19T12:23:55.099Z,18.25
2023-01-19T12:26:35.215Z,20.43
2023-01-19T12:29:30.698Z,19.05
2023-01-19T12:32:19.065Z,20.40
2023-01-19T12:34:48.160Z,19.38
2023-01-19T12:37:34.241Z,17.78
2023-01-19T12:40:16.859Z,18.71
2023-01-19T12:43:05.622Z,18.33
2023-01-19T12:45:34.934Z,20.68
2023-01-19T12:48:04.035Z,19.44
2023-01-19T12:50:39.051Z,19.78
2023-01-19T12:53:19.302Z,21.71
2023-01-19T12:55:57.915Z,20.67
2023-01-19T12:58:25.773Z,20.98
2023-01-19T13:01:14.502Z,21.67
2023-01-19T13:03:45.878Z,19.87
2023-01-19T13:06:12.941Z,22.90
2023-01-19T13:08:58.044Z,19.66
2023-01-19T13:11:27.886Z,20.11
2023-01-19T13:13:59.326Z,19.27
2023-01-19T13:16:27.432Z,20.52
2023-01-19T13:18:56.154Z,20.18
2023-01-19T13:21:42.934Z,18.56
2023-01-19T13:24:25.965Z,18.37
2023-01-19T13:26:57.531Z,18.49
2023-01-19T13:29:33.931Z,19.10
2023-01-19T13:32:04.227Z,17.74
2023-01-19T13:34:40.378Z,18.50
2023-01-19T13:37:16.398Z,19.68
2023-01-19T13:39:45.214Z,21.40
2023-01-19T13:42:21.121Z,19.91
2023-01-19T13:44:53.914Z,20.03
2023-01-19T13:47:42.045Z,18.50
2023-01-19T13:50:22.546Z,17.37
2023-01-19T13:52:51.417Z,18.50
2023-01-19T13:55:19.230Z,19.99
2023-01-19T13:57:47.623Z,19.49
2023-01-19T14:00:22.615Z,20.50
2023-01-19T14:03:01.023Z,17.99
2023-01-19T14:05:34.376Z,20.22
2023-01-19T14:08:02.369Z,20.14
2023-01-19T14:10:31.542Z,17.78
2023-01-19T14:13:03.748Z,19.08
2023-01-19T14:15:34.105Z,20.66
2023-01-19T14:18:16.847Z,17.24
2023-01-19T14:21:14.578Z,19.56
2023-01-19T14:24:05.811Z,17.08
2023-01-19T14:26:38.582Z,18.20
2023-01-19T14:29:28.949Z,18.96
2023-01-19T14:32:20.787Z,17.55
2023-01-19T14:35:14.560Z,19.27
2023-01-19T14:37:50.655Z,19.00
2023-01-19T14:40:20.491Z,17.32
2023-01-19T14:43:06.263Z,17.19
2023-01-19T14:45:41.504Z,19.53
2023-01-19T14:48:22.109Z,17.22
2023-01-19T14:51:17.137Z,16.79
2023-01-19T14:53:50.788Z,16.55
2023-01-19T14:56:30.046Z,16.40
2023-01-19T14:58:58.388Z,17.42
2023-01-19T15:01:31.291Z,18.87
2023-01-19T15:03:58.747Z,17.99
2023-01-19T15:06:27.144Z,16.68
2023-01-19T15:08:55.042Z,19.12
2023-01-19T15:11:32.662Z,17.01
2023-01-19T15:14:00.471Z,17.83
2023-01-19T15:16:30.515Z,17.63
2023-01-19T15:18:57.883Z,18.32
2023-01-19T15:21:26.696Z,17.67
2023-01-19T15:23:55.918Z,17.35
2023-01-19T15:26:25.441Z,18.13
2023-01-19T15:28:52.813Z,16.60
2023-01-19T15:31:24.185Z,17.07
2023-01-19T15:33:51.698Z,18.02
2023-01-19T15:36:21.539Z,17.90
2023-01-19T15:38:51.610Z,17.58
2023-01-19T15:41:31.905Z,17.17
2023-01-19T15:43:59.211Z,17.46
2023-01-19T15:46:26.971Z,19.10
2023-01-19T15:48:54.254Z,18.21
2023-01-19T15:51:25.438Z,17.10
2023-01-19T15:53:53.075Z,17.75
2023-01-19T15:56:23.522Z,19.06
2023-01-19T15:58:51.534Z,17.66
2023-01-19T16:01:21.832Z,18.04
2023-01-19T16:03:49.335Z,17.33
2023-01-19T16:06:16.903Z,17.10
2023-01-19T16:08:44.816Z,17.52
2023-01-19T16:11:15.129Z,17.11
2023-01-19T16:13:46.166Z,17.04
2023-01-19T16:16:18.418Z,17.19
2023-01-19T16:18:46.067Z,16.93
2023-01-19T16:21:12.832Z,17.38
2023-01-19T16:23:39.978Z,17.15
2023-01-19T16:26:22.575Z,17.71
2023-01-19T16:28:49.458Z,17.32
2023-01-19T16:31:16.728Z,17.03
2023-01-19T16:33:45.363Z,16.95
2023-01-19T16:36:29.867Z,17.70
2023-01-19T16:39:02.849Z,17.52
2023-01-19T16:41:30.056Z,17.12
2023-01-19T16:43:58.157Z,16.97
2023-01-19T16:46:30.026Z,19.05
2023-01-19T16:49:02.649Z,18.48
2023-01-19T16:51:29.969Z,19.45
2023-01-19T16:53:57.313Z,20.88
2023-01-19T16:56:24.390Z,18.12
2023-01-19T16:58:59.126Z,17.67
2023-01-19T17:01:28.339Z,18.20
2023-01-19T17:03:56.368Z,19.38
2023-01-19T17:06:24.483Z,18.88
2023-01-19T17:08:52.765Z,21.04
2023-01-19T17:11:22.894Z,20.00
2023-01-19T17:13:57.465Z,21.91
2023-01-19T17:16:25.213Z,18.83
2023-01-19T17:18:52.623Z,18.46
2023-01-19T17:21:20.313Z,18.68
2023-01-19T17:23:49.013Z,19.39
2023-01-19T17:26:16.847Z,19.78
2023-01-19T17:28:44.197Z,19.35
2023-01-19T17:31:22.492Z,20.72
2023-01-19T17:33:51.198Z,20.54
2023-01-19T17:36:22.601Z,20.59
2023-01-19T17:38:50.486Z,18.04
2023-01-19T17:41:24.076Z,18.24
2023-01-19T17:43:52.742Z,17.54
2023-01-19T17:46:22.080Z,18.69
2023-01-19T17:48:57.767Z,19.52
2023-01-19T17:51:25.404Z,18.30
2023-01-19T17:53:53.210Z,17.73
2023-01-19T17:56:22.816Z,18.90
2023-01-19T17:58:50.224Z,21.54
2023-01-19T18:01:19.551Z,21.44
2023-01-19T18:03:47.012Z,21.33
2023-01-19T18:06:14.828Z,19.42
2023-01-19T18:08:44.575Z,18.75
2023-01-19T18:11:12.038Z,17.43
2023-01-19T18:13:42.070Z,18.00
2023-01-19T18:16:15.120Z,19.39
2023-01-19T18:18:42.111Z,22.08
2023-01-19T18:21:11.947Z,21.09
2023-01-19T18:23:38.983Z,18.80
2023-01-19T18:26:08.632Z,18.41
2023-01-19T18:28:35.687Z,18.04
2023-01-19T18:31:06.797Z,17.97
2023-01-19T18:33:34.230Z,18.77
2023-01-19T18:36:01.424Z,19.35
2023-01-19T18:38:28.920Z,18.76
2023-01-19T18:41:02.695Z,19.41
2023-01-19T18:43:31.086Z,19.92
2023-01-19T18:45:58.667Z,20.25
2023-01-19T18:48:25.978Z,18.92
2023-01-19T18:50:53.850Z,18.83
2023-01-19T18:53:21.617Z,18.56
2023-01-19T18:55:59.797Z,18.88
2023-01-19T18:58:29.986Z,18.80
2023-01-19T19:00:57.501Z,22.16
2023-01-19T19:03:24.850Z,18.92
2023-01-19T19:05:51.730Z,17.90
2023-01-19T19:08:19.031Z,17.92
2023-01-19T19:10:46.510Z,17.52
2023-01-19T19:13:14.436Z,21.66
2023-01-19T19:15:41.204Z,21.41
2023-01-19T19:18:14.064Z,18.76
2023-01-19T19:20:43.781Z,18.01
2023-01-19T19:23:11.726Z,17.63
2023-01-19T19:25:39.138Z,18.05
2023-01-19T19:28:06.155Z,22.00
2023-01-19T19:30:34.764Z,21.03
2023-01-19T19:33:02.094Z,21.00
2023-01-19T19:35:29.287Z,18.75
2023-01-19T19:37:57.997Z,18.23
2023-01-19T19:40:26.646Z,18.63
2023-01-19T19:42:53.906Z,17.81
2023-01-19T19:45:20.704Z,17.66
2023-01-19T19:47:47.435Z,17.96
2023-01-19T19:50:14.579Z,17.52
2023-01-19T19:52:42.307Z,19.00
2023-01-19T19:55:11.152Z,18.25
2023-01-19T19:57:38.623Z,18.20
2023-01-19T20:00:06.626Z,17.92
2023-01-19T20:02:36.699Z,18.09
2023-01-19T20:05:04.657Z,18.30
2023-01-19T20:07:31.799Z,18.00
2023-01-19T20:09:59.299Z,18.51
2023-01-19T20:12:26.177Z,19.20
2023-01-19T20:14:53.170Z,18.31
2023-01-19T20:17:20.985Z,18.32
2023-01-19T20:19:49.034Z,17.77
2023-01-19T20:22:16.140Z,17.73
2023-01-19T20:24:43.454Z,17.71
2023-01-19T20:27:10.669Z,17.70
2023-01-19T20:29:38.188Z,17.94
2023-01-19T20:32:05.026Z,18.15
2023-01-19T20:34:33.720Z,18.83
2023-01-19T20:37:02.142Z,19.48
2023-01-19T20:39:30.294Z,19.90
2023-01-19T20:41:57.167Z,18.75
2023-01-19T20:44:25.465Z,18.34
2023-01-19T20:46:53.377Z,18.67
2023-01-19T20:49:20.571Z,18.93
2023-01-19T20:51:47.802Z,19.01
2023-01-19T20:54:18.400Z,19.07
2023-01-19T20:56:45.131Z,18.37
2023-01-19T20:59:12.672Z,18.65
2023-01-19T21:01:41.091Z,18.39
2023-01-19T21:04:08.510Z,19.19
2023-01-19T21:06:35.722Z,21.58
2023-01-19T21:09:02.693Z,20.34
2023-01-19T21:11:29.931Z,18.56
2023-01-19T21:13:56.788Z,19.17
2023-01-19T21:16:26.198Z,19.66
2023-01-19T21:18:53.678Z,19.40
2023-01-19T21:21:30.518Z,20.22
2023-01-19T21:24:00.574Z,22.33
2023-01-19T21:26:30.113Z,23.32
2023-01-19T21:29:01.950Z,21.20
2023-01-19T21:31:29.254Z,18.97
2023-01-19T21:34:00.139Z,19.64
2023-01-19T21:36:27.145Z,19.50
2023-01-19T21:39:00.790Z,20.28
2023-01-19T21:41:29.093Z,19.06
2023-01-19T21:43:55.875Z,19.18
2023-01-19T21:46:29.703Z,19.45
2023-01-19T21:49:01.452Z,19.42
2023-01-19T21:51:33.474Z,19.53
2023-01-19T21:54:02.156Z,23.23
2023-01-19T21:56:30.421Z,22.31
2023-01-19T21:58:59.448Z,24.65
2023-01-19T22:01:26.274Z,23.54
2023-01-19T22:03:55.263Z,22.41
2023-01-19T22:06:23.248Z,20.00
2023-01-19T22:08:50.199Z,20.11
2023-01-19T22:11:19.815Z,19.88
2023-01-19T22:13:46.660Z,19.40
2023-01-19T22:16:15.669Z,19.85
2023-01-19T22:18:45.423Z,19.68
2023-01-19T22:21:15.682Z,19.02
2023-01-19T22:23:43.883Z,21.14
2023-01-19T22:26:11.814Z,21.11
2023-01-19T22:28:38.604Z,20.92
2023-01-19T22:31:11.676Z,19.21
2023-01-19T22:33:38.898Z,19.45
2023-01-19T22:36:31.232Z,18.76
2023-01-19T22:39:03.889Z,19.29
2023-01-19T22:41:36.190Z,19.29
2023-01-19T22:44:05.276Z,19.54
2023-01-19T22:46:34.088Z,19.42
2023-01-19T22:49:01.576Z,19.80
2023-01-19T22:51:29.877Z,21.30
2023-01-19T22:53:57.038Z,20.00
2023-01-19T22:56:25.973Z,20.14
2023-01-19T22:58:53.513Z,19.45
2023-01-19T23:01:26.794Z,20.28
2023-01-19T23:03:54.385Z,20.53
2023-01-19T23:06:26.529Z,20.94
2023-01-19T23:08:56.088Z,20.72
2023-01-19T23:11:25.819Z,19.73
2023-01-19T23:13:53.188Z,20.33
2023-01-19T23:16:20.228Z,20.02
2023-01-19T23:18:47.387Z,19.82
2023-01-19T23:21:20.265Z,19.30
2023-01-19T23:23:47.809Z,19.92
2023-01-19T23:26:17.691Z,20.20
2023-01-19T23:28:46.229Z,20.38
2023-01-19T23:31:22.269Z,20.80
2023-01-19T23:33:55.461Z,22.48
2023-01-19T23:36:24.160Z,21.84
2023-01-19T23:38:56.425Z,24.88
2023-01-19T23:41:24.496Z,23.25
2023-01-19T23:43:52.052Z,21.96
2023-01-19T23:46:19.607Z,20.77
2023-01-19T23:48:46.822Z,21.71
2023-01-19T23:51:16.534Z,22.77
2023-01-19T23:53:43.687Z,20.85
2023-01-19T23:56:19.635Z,20.03
2023-01-19T23:58:48.381Z,19.37
